ADDS METAR Data INFO
IDs: Format: Raw Decoded Include TAF

Data at: 1015 UTC 12 Dec 2017

KSVC 120955Z AUTO 36009KT 10SM CLR M03/M16 A3041 RMK AO2 T10301158
KSVC 120935Z AUTO 36009KT 10SM CLR M04/M16 A3042 RMK AO2 T10381160
KSVC 120915Z AUTO 36006KT 10SM CLR M06/M16 A3042 RMK AO2 T10611165
KSVC 120855Z AUTO 34003KT 10SM CLR M05/M16 A3041 RMK AO2 T10551163
KSVC 120835Z AUTO 00000KT 10SM CLR M05/M16 A3041 RMK AO2 T10521165
KSVC 120815Z AUTO 00000KT 10SM CLR M05/M16 A3040 RMK AO2 T10461163
KSVC 120755Z AUTO 00000KT 10SM CLR M04/M16 A3040 RMK AO2 T10421161
KSVC 120735Z AUTO 04004KT 10SM CLR M03/M16 A3040 RMK AO2 T10321161
KSVC 120715Z AUTO 03003KT 10SM CLR M03/M16 A3039 RMK AO2 T10281160
KSVC 120655Z AUTO 02004KT 10SM CLR M03/M16 A3039 RMK AO2 T10291160 401411041
KSVC 120635Z AUTO 01005KT 10SM CLR M02/M16 A3039 RMK AO2 T10181156
KSVC 120615Z AUTO 00000KT 10SM CLR M01/M16 A3038 RMK AO2 T10111156
KSVC 120555Z AUTO 00000KT 10SM CLR 00/M15 A3038 RMK AO2 T00041153 10115 21007
KSVC 120535Z AUTO 31005KT 10SM CLR 00/M15 A3038 RMK AO2 T00011155
KSVC 120515Z AUTO 34004KT 10SM CLR 01/M15 A3037 RMK AO2 T00071153
KSVC 120455Z AUTO 35007KT 10SM CLR 00/M15 A3038 RMK AO2 T00001154
KSVC 120435Z AUTO 36005KT 10SM CLR 00/M15 A3038 RMK AO2 T00031155
KSVC 120415Z AUTO 35009KT 10SM CLR M01/M16 A3037 RMK AO2 T10071160
KSVC 120355Z AUTO 35009KT 10SM CLR 00/M16 A3037 RMK AO2 T00001160
KSVC 120335Z AUTO 36008KT 10SM CLR 02/M16 A3037 RMK AO2 T00151156
KSVC 120315Z AUTO 35008KT 10SM CLR 02/M16 A3037 RMK AO2 T00171156
KSVC 120255Z AUTO 36009KT 10SM CLR 02/M16 A3037 RMK AO2 T00151156
KSVC 120235Z AUTO 35009KT 10SM CLR 01/M16 A3037 RMK AO2 T00101157
KSVC 120215Z AUTO 36009KT 10SM CLR 01/M15 A3037 RMK AO2 T00121154
KSVC 120155Z AUTO 36003KT 10SM CLR 00/M15 A3037 RMK AO2 T00041154
KSVC 120135Z AUTO 00000KT 10SM CLR 02/M13 A3037 RMK AO2 T00221132
KSVC 120115Z AUTO 00000KT 10SM CLR 06/M15 A3036 RMK AO2 T00611150
KSVC 120055Z AUTO 11005KT 10SM CLR 08/M16 A3036 RMK AO2 T00771159
KSVC 120035Z AUTO 12004KT 10SM CLR 09/M16 A3035 RMK AO2 T00891160
KSVC 120015Z AUTO 12004KT 10SM CLR 10/M16 A3035 RMK AO2 T00971157
KSVC 112355Z AUTO 00000KT 10SM CLR 12/M15 A3035 RMK AO2 T01151151 10141 20115
KSVC 112335Z AUTO 00000KT 10SM CLR 12/M15 A3034 RMK AO2 T01201152
KSVC 112315Z AUTO 00000KT 10SM CLR 13/M15 A3034 RMK AO2 T01261152
KSVC 112255Z AUTO 18003KT 10SM CLR 13/M15 A3034 RMK AO2 T01281150
KSVC 112235Z AUTO 15003KT 10SM CLR 13/M16 A3034 RMK AO2 T01271162
KSVC 112215Z AUTO 00000KT 10SM CLR 13/M16 A3034 RMK AO2 T01321163
KSVC 112155Z AUTO 00000KT 10SM CLR 14/M16 A3034 RMK AO2 T01351160
KSVC 112135Z AUTO 00000KT 10SM CLR 14/M16 A3034 RMK AO2 T01351158
KSVC 112115Z AUTO 00000KT 10SM CLR 13/M16 A3035 RMK AO2 T01261158
KSVC 112055Z AUTO 00000KT 10SM CLR 13/M15 A3035 RMK AO2 T01341154
KSVC 112035Z AUTO 15004KT 10SM CLR 14/M16 A3035 RMK AO2 T01351156
KSVC 112015Z AUTO 16005KT 10SM CLR 12/M16 A3036 RMK AO2 T01241156
KSVC 111955Z AUTO 15007KT 10SM CLR 12/M16 A3037 RMK AO2 T01221157
KSVC 111935Z AUTO 17006KT 10SM CLR 12/M16 A3038 RMK AO2 T01221158
KSVC 111915Z AUTO 16007KT 10SM CLR 12/M15 A3038 RMK AO2 T01231154
KSVC 111855Z AUTO 17008KT 10SM CLR 14/M15 A3039 RMK AO2 T01391155
KSVC 111835Z AUTO 16006KT 10SM CLR 13/M16 A3040 RMK AO2 T01311164
KSVC 111815Z AUTO 14005KT 10SM CLR 13/M16 A3042 RMK AO2 T01301164
KSVC 111755Z AUTO 20005KT 10SM CLR 11/M17 A3042 RMK AO2 T01131170 10113 21041
KSVC 111735Z AUTO 23003KT 10SM CLR 10/M17 A3042 RMK AO2 T00951172
KSVC 111715Z AUTO 00000KT 10SM CLR 09/M17 A3042 RMK AO2 T00871172
KSVC 111655Z AUTO 00000KT 10SM CLR 08/M16 A3042 RMK AO2 T00801159
KSVC 111635Z AUTO 00000KT 10SM CLR 08/M16 A3042 RMK AO2 T00751157
KSVC 111615Z AUTO 30003KT 10SM CLR 06/M16 A3040 RMK AO2 T00571158
KSVC 111555Z AUTO 00000KT 10SM CLR 04/M15 A3040 RMK AO2 T00411155
KSVC 111535Z AUTO 33004KT 10SM CLR 02/M16 A3040 RMK AO2 T00211156
KSVC 111515Z AUTO 35005KT 10SM CLR 01/M16 A3040 RMK AO2 T00101159
KSVC 111455Z AUTO 36005KT 10SM CLR M01/M17 A3040 RMK AO2 T10081167
KSVC 111435Z AUTO 36008KT 10SM CLR M03/M17 A3040 RMK AO2 T10291170
KSVC 111415Z AUTO 33004KT 10SM CLR M04/M18 A3041 RMK AO2 T10371177
KSVC 111355Z AUTO 33006KT 10SM CLR M03/M18 A3041 RMK AO2 T10331181
KSVC 111335Z AUTO 32006KT 10SM CLR M02/M18 A3040 RMK AO2 T10201183
KSVC 111315Z AUTO 35006KT 10SM CLR M03/M18 A3040 RMK AO2 T10311185
KSVC 111255Z AUTO 34005KT 10SM CLR M01/M19 A3040 RMK AO2 T10151188
KSVC 111235Z AUTO 35006KT 10SM CLR M03/M19 A3040 RMK AO2 T10311190
KSVC 111215Z AUTO 36006KT 10SM CLR M02/M19 A3040 RMK AO2 T10161191
KSVC 111155Z AUTO 35006KT 10SM CLR M02/M19 A3040 RMK AO2 T10251195 10000 21034
KSVC 111135Z AUTO 34008KT 10SM CLR M02/M20 A3041 RMK AO2 T10201197
KSVC 111115Z AUTO 29005KT 10SM CLR M02/M19 A3041 RMK AO2 T10181194
KSVC 111055Z AUTO 35007KT 10SM CLR M03/M19 A3041 RMK AO2 T10341190
KSVC 111035Z AUTO 35007KT 10SM CLR M01/M19 A3042 RMK AO2 T10121192
KSVC 111015Z AUTO 35007KT 10SM CLR M02/M19 A3042 RMK AO2 T10181191
KSVC 110955Z AUTO 34007KT 10SM CLR M03/M19 A3043 RMK AO2 T10301191
KSVC 110935Z AUTO 36007KT 10SM CLR M02/M19 A3043 RMK AO2 T10181190
KSVC 110915Z AUTO 01007KT 10SM CLR M02/M19 A3044 RMK AO2 T10241191
KSVC 110855Z AUTO 36007KT 10SM CLR M03/M19 A3045 RMK AO2 T10301193
KSVC 110835Z AUTO 36007KT 10SM CLR M03/M19 A3044 RMK AO2 T10301186
KSVC 110815Z AUTO 36008KT 10SM CLR M01/M18 A3044 RMK AO2 T10141182
KSVC 110755Z AUTO 36008KT 10SM CLR M01/M18 A3044 RMK AO2 T10111179
KSVC 110735Z AUTO 36009KT 10SM CLR M03/M17 A3045 RMK AO2 T10281170
KSVC 110715Z AUTO 35008KT 10SM CLR M01/M16 A3045 RMK AO2 T10151165
KSVC 110655Z AUTO 36007KT 10SM CLR 00/M16 A3045 RMK AO2 T00001157 401401070
KSVC 110635Z AUTO 36008KT 10SM CLR 00/M16 A3046 RMK AO2 T10031160
KSVC 110615Z AUTO 36007KT 10SM CLR M01/M15 A3046 RMK AO2 T10141155
KSVC 110555Z AUTO 36008KT 10SM CLR M03/M16 A3047 RMK AO2 T10271157 10083 21040
KSVC 110535Z AUTO 36005KT 10SM CLR M03/M16 A3047 RMK AO2 T10341160
KSVC 110515Z AUTO 36005KT 10SM CLR M04/M16 A3047 RMK AO2 T10401160
KSVC 110455Z AUTO 33005KT 10SM CLR M03/M16 A3046 RMK AO2 T10301156
KSVC 110435Z AUTO 36007KT 10SM CLR M02/M15 A3045 RMK AO2 T10171152
KSVC 110415Z AUTO 36007KT 10SM CLR M01/M15 A3045 RMK AO2 T10101148
KSVC 110355Z AUTO 35005KT 10SM CLR M03/M16 A3045 RMK AO2 T10321156
KSVC 110335Z AUTO 34005KT 10SM CLR M02/M15 A3046 RMK AO2 T10191152
KSVC 110315Z AUTO 35004KT 10SM CLR M01/M15 A3045 RMK AO2 T10091150
KSVC 110255Z AUTO 01004KT 10SM CLR M01/M15 A3044 RMK AO2 T10061150
KSVC 110235Z AUTO 01006KT 10SM CLR M01/M15 A3044 RMK AO2 T10151153
KSVC 110215Z AUTO 02004KT 10SM CLR M02/M16 A3044 RMK AO2 T10161157
KSVC 110155Z AUTO 00000KT 10SM CLR M01/M16 A3044 RMK AO2 T10131158
KSVC 110135Z AUTO 00000KT 10SM CLR 01/M15 A3044 RMK AO2 T00131150
KSVC 110115Z AUTO 00000KT 10SM CLR 04/M14 A3043 RMK AO2 T00381145
KSVC 110055Z AUTO 09003KT 10SM CLR 08/M14 A3043 RMK AO2 T00791136
KSVC 110035Z AUTO 10003KT 10SM CLR 08/M14 A3043 RMK AO2 T00811137
KSVC 110015Z AUTO 15003KT 10SM CLR 08/M14 A3042 RMK AO2 T00811139
KSVC 102355Z AUTO 15004KT 10SM CLR 08/M14 A3043 RMK AO2 T00841141 10140 20084
KSVC 102335Z AUTO 15004KT 10SM CLR 10/M14 A3043 RMK AO2 T00971142
KSVC 102315Z AUTO 14006KT 10SM CLR 11/M14 A3042 RMK AO2 T01071137
KSVC 102255Z AUTO 14008KT 10SM CLR 11/M14 A3042 RMK AO2 T01141141
KSVC 102235Z AUTO 14009KT 10SM CLR 12/M14 A3042 RMK AO2 T01221139